This is the latest recevied weather packets stored in our database for station/object VK5ARG-5. If no packets are shown the sender has not sent any weather packets the latest 10 day(s).
| Time | Temp. | Humidity | Pressure | Rain* | Wind** | Luminosity | Snow |
|---|---|---|---|---|---|---|---|
| 1778130348 | 12.78° C | 58% | - | 0 mm | - | - | - |
| 1778129148 | 12.22° C | 66% | - | 0 mm | - | - | - |
| 1778127929 | 12.22° C | 66% | - | 0 mm | - | - | - |
| 1778127325 | 12.22° C | 63% | - | 0 mm | - | - | - |
| 1778123729 | 12.78° C | 56% | - | 0 mm | - | - | - |
| 1778112327 | 10.56° C | 72% | - | 0 mm | - | - | - |
| 1778109368 | 10° C | 76% | - | 0 mm | - | - | - |
| 1778107524 | 9.44° C | 78% | - | 0 mm | - | - | - |
| 1778103345 | 8.33° C | 80% | - | 0 mm | - | - | - |
| 1778100926 | 8.89° C | 78% | - | 0 mm | - | - | - |
| 1778099728 | 8.89° C | 76% | - | 0 mm | - | - | - |
| 1778097924 | 9.44° C | 73% | - | 0 mm | - | - | - |
| 1778081729 | 9.44° C | 76% | - | 0 mm | - | - | - |
| 1778075726 | 10° C | 85% | - | 0 mm | - | - | - |
| 1778073924 | 10.56° C | 86% | - | 0 mm | - | - | - |
| 1778067921 | 11.11° C | 94% | - | 0 mm | - | - | - |
| 1778066722 | 11.11° C | 99% | - | 0 mm | - | - | - |
| 1778065525 | 11.11° C | 99% | - | 0 mm | - | - | - |
| 1778063721 | 11.11° C | 98% | - | 0 mm | - | - | - |
| 1778063126 | 11.11° C | 98% | - | 0 mm | - | - | - |
| 1778061343 | 11.67° C | 94% | - | 0 mm | - | - | - |
| 1778059520 | 11.67° C | 90% | - | 0 mm | - | - | - |
| 1778058925 | 11.67° C | 90% | - | 0 mm | - | - | - |
| 1778057123 | 12.22° C | 87% | - | 0 mm | - | - | - |
| 1778055924 | 12.22° C | 86% | - | 0 mm | - | - | - |
* Rain latest hour (hover to see other rain measurements)
** Current wind speed in m/s (hover to see current wind gust speed)